ADDS METAR Data INFO
IDs: Format: Raw Decoded Include TAF

Data at: 0716 UTC 21 Jul 2018

KERV 210655Z AUTO 18004KT 10SM CLR 26/22 A3002 RMK AO2 T02610221
KERV 210635Z AUTO 16006KT 10SM CLR 27/22 A3002 RMK AO2 T02650220
KERV 210615Z AUTO 16007KT 10SM CLR 27/22 A3002 RMK AO2 T02690220
KERV 210555Z AUTO 15008KT 10SM CLR 28/22 A3002 RMK AO2 T02750216 10361 20275 403790226
KERV 210535Z AUTO 16007KT 10SM CLR 28/21 A3002 RMK AO2 T02750208
KERV 210515Z AUTO 16008KT 10SM CLR 28/20 A3002 RMK AO2 T02750197
KERV 210455Z AUTO 15007KT 10SM CLR 28/19 A3002 RMK AO2 T02820190
KERV 210435Z AUTO 15007KT 10SM CLR 28/16 A3002 RMK AO2 T02760159
KERV 210415Z AUTO 14003KT 10SM CLR 28/15 A3001 RMK AO2 T02760145
KERV 210355Z AUTO 11004KT 10SM CLR 29/14 A3001 RMK AO2 T02870144
KERV 210335Z AUTO 12004KT 10SM CLR 29/15 A3000 RMK AO2 T02900146

KT82 210655Z AUTO 00000KT 10SM CLR 26/20 A3002 RMK AO2 T02610198
KT82 210635Z AUTO 00000KT 10SM CLR 26/19 A3002 RMK AO2 T02630194
KT82 210615Z AUTO 00000KT 10SM CLR 27/19 A3002 RMK AO2 T02650185
KT82 210555Z AUTO 00000KT 10SM CLR 27/18 A3002 RMK AO2 T02700177 10360 20270 403820228
KT82 210535Z AUTO 00000KT 10SM CLR 27/17 A3002 RMK AO2 T02730165
KT82 210515Z AUTO 00000KT 10SM CLR 28/16 A3002 RMK AO2 T02780161
KT82 210455Z AUTO 00000KT 10SM CLR 29/16 A3001 RMK AO2 T02850164
KT82 210435Z AUTO 00000KT 10SM CLR 29/14 A3002 RMK AO2 T02880143
KT82 210415Z AUTO 00000KT 10SM CLR 29/13 A3001 RMK AO2 T02850131
KT82 210355Z AUTO 00000KT 10SM CLR 29/13 A3001 RMK AO2 T02910130
KT82 210335Z AUTO 00000KT 10SM CLR 29/13 A3000 RMK AO2 T02920127

KJCT 210651Z AUTO 19006KT 10SM CLR 29/16 A3002 RMK AO2 SLP120 T02890161
KJCT 210551Z AUTO 19005KT 10SM CLR 30/16 A3002 RMK AO2 SLP120 T03000156 10389 20300 404110244 52011
KJCT 210451Z AUTO 17009G17KT 10SM CLR 32/14 A3000 RMK AO2 SLP116 T03170144
KJCT 210351Z AUTO 16009KT 10SM CLR 33/14 A2999 RMK AO2 SLP112 T03280139

K5C1 210655Z AUTO 19004KT 10SM CLR 25/22 A3002 RMK AO1
K5C1 210635Z AUTO 18005KT 10SM CLR 25/22 A3002 RMK AO1
K5C1 210615Z AUTO 18005KT 10SM CLR 25/21 A3002 RMK AO1
K5C1 210555Z AUTO 18006KT 10SM CLR 26/20 A3002 RMK AO1
K5C1 210535Z AUTO 18006KT 10SM CLR 26/20 A3003 RMK AO1
K5C1 210515Z AUTO 16005KT 10SM CLR 26/20 A3003 RMK AO1
K5C1 210455Z AUTO 16005KT 10SM CLR 27/21 A3002 RMK AO1
K5C1 210435Z AUTO 18006KT 10SM CLR 27/21 A3002 RMK AO1
K5C1 210415Z AUTO 17007KT 10SM CLR 28/21 A3002 RMK AO1
K5C1 210355Z AUTO 17005KT 10SM CLR 28/20 A3001 RMK AO1
K5C1 210335Z AUTO 18003KT 10SM CLR 28/18 A3001 RMK AO1

KHDO 210651Z AUTO 14008KT 10SM CLR 28/24 A2998 RMK AO2 SLP134 T02780239 $
KHDO 210551Z AUTO 14008KT 10SM 29/24 A2998 RMK AO2 SLP133 T02890244 10394 20289 404110239 51013 $
KHDO 210451Z AUTO 15012KT 10SM CLR 31/24 A2997 RMK AO2 SLP131 T03060244
KHDO 210351Z AUTO 14013KT 10SM CLR 32/22 A2996 RMK AO2 SLP128 T03220222